sensor_id;sensor_type;location;lat;lon;timestamp;pressure;altitude;pressure_sealevel;temperature;humidity
33161;BME280;19522;45.656;11.302;2022-12-13T00:00:09;97863.09;;;-0.73;79.42
33161;BME280;19522;45.656;11.302;2022-12-13T00:02:40;97818.28;;;-1.21;80.12
33161;BME280;19522;45.656;11.302;2022-12-13T00:05:06;97866.31;;;-1.12;81.35
33161;BME280;19522;45.656;11.302;2022-12-13T00:07:33;97872.81;;;-1.26;82.18
33161;BME280;19522;45.656;11.302;2022-12-13T00:09:59;97849.03;;;-1.17;82.85
33161;BME280;19522;45.656;11.302;2022-12-13T00:12:25;97825.94;;;-1.28;82.23
33161;BME280;19522;45.656;11.302;2022-12-13T00:14:50;97804.44;;;-1.15;81.45
33161;BME280;19522;45.656;11.302;2022-12-13T00:17:16;97866.41;;;-1.02;82.10
33161;BME280;19522;45.656;11.302;2022-12-13T00:19:41;97859.97;;;-1.20;83.31
33161;BME280;19522;45.656;11.302;2022-12-13T00:22:07;97861.50;;;-1.18;84.16
33161;BME280;19522;45.656;11.302;2022-12-13T00:24:32;97864.41;;;-1.21;84.65
33161;BME280;19522;45.656;11.302;2022-12-13T00:26:58;97859.69;;;-1.17;84.69
33161;BME280;19522;45.656;11.302;2022-12-13T00:29:23;97868.00;;;-1.11;84.78
33161;BME280;19522;45.656;11.302;2022-12-13T00:31:49;97853.13;;;-1.13;84.45
33161;BME280;19522;45.656;11.302;2022-12-13T00:34:15;97872.22;;;-1.08;84.34
33161;BME280;19522;45.656;11.302;2022-12-13T00:36:40;97863.00;;;-1.04;84.38
33161;BME280;19522;45.656;11.302;2022-12-13T00:39:06;97868.53;;;-0.96;84.25
33161;BME280;19522;45.656;11.302;2022-12-13T00:41:34;97868.00;;;-0.89;84.33
33161;BME280;19522;45.656;11.302;2022-12-13T00:44:00;97865.91;;;-0.86;83.90
33161;BME280;19522;45.656;11.302;2022-12-13T00:46:27;97860.66;;;-0.76;83.19
33161;BME280;19522;45.656;11.302;2022-12-13T00:48:56;97843.16;;;-0.69;82.15
33161;BME280;19522;45.656;11.302;2022-12-13T00:51:23;97845.44;;;-0.64;81.58
33161;BME280;19522;45.656;11.302;2022-12-13T00:53:49;97844.31;;;-0.61;81.42
33161;BME280;19522;45.656;11.302;2022-12-13T00:56:20;97849.66;;;-0.61;81.59
33161;BME280;19522;45.656;11.302;2022-12-13T00:58:48;97806.47;;;-0.76;81.23
33161;BME280;19522;45.656;11.302;2022-12-13T01:01:15;97742.31;;;-1.16;81.04
33161;BME280;19522;45.656;11.302;2022-12-13T01:03:41;97846.19;;;-0.21;80.45
33161;BME280;19522;45.656;11.302;2022-12-13T01:06:18;97847.56;;;-0.27;80.19
33161;BME280;19522;45.656;11.302;2022-12-13T01:08:45;97849.53;;;-0.29;80.29
33161;BME280;19522;45.656;11.302;2022-12-13T01:11:11;97834.22;;;-0.27;78.74
33161;BME280;19522;45.656;11.302;2022-12-13T01:13:37;97849.53;;;-0.29;79.02
33161;BME280;19522;45.656;11.302;2022-12-13T01:16:06;97840.81;;;-0.62;80.35
33161;BME280;19522;45.656;11.302;2022-12-13T01:18:32;97841.34;;;-0.37;80.21
33161;BME280;19522;45.656;11.302;2022-12-13T01:21:05;97847.22;;;-0.43;80.49
33161;BME280;19522;45.656;11.302;2022-12-13T01:23:31;97854.78;;;-0.49;81.25
33161;BME280;19522;45.656;11.302;2022-12-13T01:25:57;97860.69;;;-0.45;81.66
33161;BME280;19522;45.656;11.302;2022-12-13T01:28:23;97858.25;;;-0.58;82.09
33161;BME280;19522;45.656;11.302;2022-12-13T01:30:57;97853.22;;;-0.51;82.40
33161;BME280;19522;45.656;11.302;2022-12-13T01:33:23;97823.69;;;-0.59;82.18
33161;BME280;19522;45.656;11.302;2022-12-13T01:35:50;97848.66;;;-0.39;82.16
33161;BME280;19522;45.656;11.302;2022-12-13T01:38:15;97842.91;;;-0.35;82.17
33161;BME280;19522;45.656;11.302;2022-12-13T01:40:45;97843.59;;;-0.33;82.20
33161;BME280;19522;45.656;11.302;2022-12-13T01:43:15;97824.09;;;-0.33;81.76
33161;BME280;19522;45.656;11.302;2022-12-13T01:45:41;97805.09;;;-0.40;81.52
33161;BME280;19522;45.656;11.302;2022-12-13T01:48:18;97824.97;;;-0.23;81.61
33161;BME280;19522;45.656;11.302;2022-12-13T01:50:47;97825.94;;;-0.24;81.30
33161;BME280;19522;45.656;11.302;2022-12-13T01:53:17;97823.94;;;-0.32;81.19
33161;BME280;19522;45.656;11.302;2022-12-13T01:55:47;97828.75;;;-0.25;81.03
33161;BME280;19522;45.656;11.302;2022-12-13T01:58:14;97800.53;;;-0.18;80.76
33161;BME280;19522;45.656;11.302;2022-12-13T02:00:40;97797.94;;;0.02;80.15
33161;BME280;19522;45.656;11.302;2022-12-13T02:03:06;97777.81;;;-0.03;79.15
33161;BME280;19522;45.656;11.302;2022-12-13T02:05:42;97808.88;;;-0.02;80.25
33161;BME280;19522;45.656;11.302;2022-12-13T02:08:10;97796.50;;;-0.03;80.35
33161;BME280;19522;45.656;11.302;2022-12-13T02:10:38;97794.69;;;-0.02;81.00
33161;BME280;19522;45.656;11.302;2022-12-13T02:13:04;97780.88;;;-0.17;81.03
33161;BME280;19522;45.656;11.302;2022-12-13T02:32:09;97784.84;;;-0.02;82.06
33161;BME280;19522;45.656;11.302;2022-12-13T02:34:56;97788.38;;;-0.01;82.18
33161;BME280;19522;45.656;11.302;2022-12-13T02:37:42;97781.19;;;-0.01;82.42
33161;BME280;19522;45.656;11.302;2022-12-13T02:40:23;97787.25;;;0.02;82.34
33161;BME280;19522;45.656;11.302;2022-12-13T02:45:40;97779.66;;;0.07;81.93
33161;BME280;19522;45.656;11.302;2022-12-13T02:48:09;97722.28;;;-0.19;81.79
33161;BME280;19522;45.656;11.302;2022-12-13T02:50:37;97751.44;;;0.14;80.58
33161;BME280;19522;45.656;11.302;2022-12-13T02:53:04;97773.91;;;0.51;79.52
33161;BME280;19522;45.656;11.302;2022-12-13T02:55:30;97776.16;;;0.55;78.75
33161;BME280;19522;45.656;11.302;2022-12-13T02:57:59;97776.72;;;0.39;79.56
33161;BME280;19522;45.656;11.302;2022-12-13T03:00:41;97766.44;;;0.15;80.34
33161;BME280;19522;45.656;11.302;2022-12-13T03:14:43;97721.88;;;-0.14;82.09
33161;BME280;19522;45.656;11.302;2022-12-13T03:17:10;97766.19;;;0.18;81.87
33161;BME280;19522;45.656;11.302;2022-12-13T03:19:39;97734.25;;;0.07;82.00
33161;BME280;19522;45.656;11.302;2022-12-13T03:22:05;97741.72;;;0.13;82.20
33161;BME280;19522;45.656;11.302;2022-12-13T03:24:31;97749.59;;;0.24;82.14
33161;BME280;19522;45.656;11.302;2022-12-13T03:26:56;97728.66;;;0.10;82.08
33161;BME280;19522;45.656;11.302;2022-12-13T03:29:22;97744.09;;;0.16;82.06
33161;BME280;19522;45.656;11.302;2022-12-13T03:31:48;97755.22;;;0.31;82.14
33161;BME280;19522;45.656;11.302;2022-12-13T03:34:13;97726.38;;;0.15;81.86
33161;BME280;19522;45.656;11.302;2022-12-13T03:36:39;97715.03;;;0.13;81.53
33161;BME280;19522;45.656;11.302;2022-12-13T03:39:05;97758.03;;;0.39;81.40
33161;BME280;19522;45.656;11.302;2022-12-13T03:41:31;97709.69;;;0.13;81.20
33161;BME280;19522;45.656;11.302;2022-12-13T03:44:02;97754.66;;;0.47;80.95
33161;BME280;19522;45.656;11.302;2022-12-13T03:46:28;97757.34;;;0.37;81.39
33161;BME280;19522;45.656;11.302;2022-12-13T03:48:54;97701.53;;;0.05;81.75
33161;BME280;19522;45.656;11.302;2022-12-13T03:51:19;97744.25;;;0.34;81.78
33161;BME280;19522;45.656;11.302;2022-12-13T03:53:45;97716.56;;;0.15;81.52
33161;BME280;19522;45.656;11.302;2022-12-13T03:56:11;97769.69;;;0.48;81.45
33161;BME280;19522;45.656;11.302;2022-12-13T03:58:36;97767.59;;;0.42;81.28
33161;BME280;19522;45.656;11.302;2022-12-13T04:01:03;97756.50;;;0.46;81.14
33161;BME280;19522;45.656;11.302;2022-12-13T04:03:29;97755.38;;;0.49;81.00
33161;BME280;19522;45.656;11.302;2022-12-13T04:05:55;97742.56;;;0.53;80.74
33161;BME280;19522;45.656;11.302;2022-12-13T04:08:20;97743.66;;;0.60;80.36
33161;BME280;19522;45.656;11.302;2022-12-13T04:10:46;97716.53;;;0.45;80.30
33161;BME280;19522;45.656;11.302;2022-12-13T04:13:11;97714.84;;;0.44;80.34
33161;BME280;19522;45.656;11.302;2022-12-13T04:15:56;97743.53;;;0.61;80.65
33161;BME280;19522;45.656;11.302;2022-12-13T04:18:21;97735.53;;;0.61;80.68
33161;BME280;19522;45.656;11.302;2022-12-13T04:20:47;97630.84;;;-0.01;81.01
33161;BME280;19522;45.656;11.302;2022-12-13T04:23:13;97737.34;;;0.61;81.28
33161;BME280;19522;45.656;11.302;2022-12-13T04:25:39;97725.81;;;0.60;81.42
33161;BME280;19522;45.656;11.302;2022-12-13T04:28:06;97682.94;;;0.42;81.43
33161;BME280;19522;45.656;11.302;2022-12-13T04:30:32;97728.63;;;0.69;81.18
33161;BME280;19522;45.656;11.302;2022-12-13T04:32:58;97735.53;;;0.61;81.44
33161;BME280;19522;45.656;11.302;2022-12-13T04:35:23;97735.66;;;0.60;81.92
33161;BME280;19522;45.656;11.302;2022-12-13T04:37:49;97731.16;;;0.60;82.14
33161;BME280;19522;45.656;11.302;2022-12-13T04:40:14;97733.41;;;0.65;81.87
33161;BME280;19522;45.656;11.302;2022-12-13T04:42:40;97734.94;;;0.68;81.77
33161;BME280;19522;45.656;11.302;2022-12-13T04:45:06;97734.41;;;0.64;82.07
33161;BME280;19522;45.656;11.302;2022-12-13T04:47:32;97683.09;;;0.41;82.12
33161;BME280;19522;45.656;11.302;2022-12-13T04:49:57;97646.97;;;0.17;82.97
33161;BME280;19522;45.656;11.302;2022-12-13T04:52:23;97715.84;;;0.63;82.31
33161;BME280;19522;45.656;11.302;2022-12-13T04:54:49;97720.31;;;0.62;82.44
33161;BME280;19522;45.656;11.302;2022-12-13T04:57:14;97691.50;;;0.46;82.67
33161;BME280;19522;45.656;11.302;2022-12-13T04:59:40;97672.97;;;0.35;82.66
33161;BME280;19522;45.656;11.302;2022-12-13T05:02:07;97717.25;;;0.57;82.77
33161;BME280;19522;45.656;11.302;2022-12-13T05:04:33;97703.19;;;0.55;82.77
33161;BME280;19522;45.656;11.302;2022-12-13T05:06:59;97732.13;;;0.79;82.48
33161;BME280;19522;45.656;11.302;2022-12-13T05:09:24;97722.28;;;0.70;82.47
33161;BME280;19522;45.656;11.302;2022-12-13T05:11:50;97749.53;;;0.83;82.60
33161;BME280;19522;45.656;11.302;2022-12-13T05:14:15;97714.97;;;0.72;82.73
33161;BME280;19522;45.656;11.302;2022-12-13T05:16:41;97736.28;;;0.91;82.71
33161;BME280;19522;45.656;11.302;2022-12-13T05:19:06;97720.00;;;0.75;82.70
33161;BME280;19522;45.656;11.302;2022-12-13T05:21:32;97740.41;;;0.86;83.28
33161;BME280;19522;45.656;11.302;2022-12-13T05:24:02;97750.41;;;0.84;84.26
33161;BME280;19522;45.656;11.302;2022-12-13T05:26:28;97750.53;;;0.82;84.37
33161;BME280;19522;45.656;11.302;2022-12-13T05:28:57;97752.09;;;0.85;84.28
33161;BME280;19522;45.656;11.302;2022-12-13T05:31:22;97647.25;;;0.24;84.03
33161;BME280;19522;45.656;11.302;2022-12-13T05:33:48;97744.06;;;0.85;84.44
33161;BME280;19522;45.656;11.302;2022-12-13T05:36:13;97748.97;;;0.89;84.49
33161;BME280;19522;45.656;11.302;2022-12-13T05:38:39;97712.97;;;0.74;84.37
33161;BME280;19522;45.656;11.302;2022-12-13T05:41:06;97744.19;;;0.93;84.58
33161;BME280;19522;45.656;11.302;2022-12-13T05:43:37;97717.47;;;0.83;84.51
33161;BME280;19522;45.656;11.302;2022-12-13T05:46:03;97669.72;;;0.51;84.43
33161;BME280;19522;45.656;11.302;2022-12-13T05:48:28;97747.41;;;0.97;84.44
33161;BME280;19522;45.656;11.302;2022-12-13T05:50:54;97737.00;;;0.93;84.13
33161;BME280;19522;45.656;11.302;2022-12-13T05:53:19;97710.03;;;0.77;83.71
33161;BME280;19522;45.656;11.302;2022-12-13T05:55:45;97748.41;;;0.96;83.82
33161;BME280;19522;45.656;11.302;2022-12-13T05:58:10;97745.44;;;0.99;83.67
33161;BME280;19522;45.656;11.302;2022-12-13T06:00:37;97708.66;;;0.63;84.23
33161;BME280;19522;45.656;11.302;2022-12-13T06:03:03;97741.53;;;0.83;84.03
33161;BME280;19522;45.656;11.302;2022-12-13T06:05:29;97716.41;;;0.66;84.19
33161;BME280;19522;45.656;11.302;2022-12-13T06:07:55;97746.75;;;0.85;84.23
33161;BME280;19522;45.656;11.302;2022-12-13T06:10:21;97716.94;;;0.70;83.75
33161;BME280;19522;45.656;11.302;2022-12-13T06:12:47;97721.84;;;0.74;84.02
33161;BME280;19522;45.656;11.302;2022-12-13T06:15:12;97749.81;;;0.90;83.87
33161;BME280;19522;45.656;11.302;2022-12-13T06:17:38;97738.97;;;0.91;83.78
33161;BME280;19522;45.656;11.302;2022-12-13T06:20:05;97737.00;;;0.93;83.67
33161;BME280;19522;45.656;11.302;2022-12-13T06:22:31;97740.53;;;0.94;83.81
33161;BME280;19522;45.656;11.302;2022-12-13T06:24:57;97741.91;;;0.98;83.64
33161;BME280;19522;45.656;11.302;2022-12-13T06:27:23;97750.09;;;0.97;83.53
33161;BME280;19522;45.656;11.302;2022-12-13T06:29:48;97737.97;;;1.02;83.35
33161;BME280;19522;45.656;11.302;2022-12-13T06:32:14;97710.72;;;0.79;83.25
33161;BME280;19522;45.656;11.302;2022-12-13T06:34:39;97742.22;;;0.95;83.30
33161;BME280;19522;45.656;11.302;2022-12-13T06:37:06;97737.84;;;0.94;83.57
33161;BME280;19522;45.656;11.302;2022-12-13T06:39:33;97741.63;;;0.91;83.85
33161;BME280;19522;45.656;11.302;2022-12-13T06:42:00;97740.09;;;0.99;84.11
33161;BME280;19522;45.656;11.302;2022-12-13T06:44:26;97735.47;;;0.91;84.37
33161;BME280;19522;45.656;11.302;2022-12-13T06:46:51;97740.09;;;0.89;84.85
33161;BME280;19522;45.656;11.302;2022-12-13T06:49:17;97736.16;;;0.83;85.31
33161;BME280;19522;45.656;11.302;2022-12-13T06:51:42;97736.16;;;0.83;85.63
33161;BME280;19522;45.656;11.302;2022-12-13T06:54:08;97734.34;;;0.84;85.78
33161;BME280;19522;45.656;11.302;2022-12-13T06:56:34;97743.38;;;0.83;85.78
33161;BME280;19522;45.656;11.302;2022-12-13T06:58:59;97750.66;;;0.90;85.50
33161;BME280;19522;45.656;11.302;2022-12-13T07:01:25;97752.91;;;0.95;85.32
33161;BME280;19522;45.656;11.302;2022-12-13T07:03:53;97751.66;;;0.89;85.55
33161;BME280;19522;45.656;11.302;2022-12-13T07:06:21;97751.94;;;0.96;85.55
33161;BME280;19522;45.656;11.302;2022-12-13T07:08:49;97755.16;;;1.00;85.75
33161;BME280;19522;45.656;11.302;2022-12-13T07:11:16;97756.25;;;0.97;85.51
33161;BME280;19522;45.656;11.302;2022-12-13T07:13:43;97659.22;;;0.29;85.98
33161;BME280;19522;45.656;11.302;2022-12-13T07:16:09;97764.16;;;0.89;86.22
33161;BME280;19522;45.656;11.302;2022-12-13T07:18:35;97744.06;;;0.85;86.25
33161;BME280;19522;45.656;11.302;2022-12-13T07:21:09;97759.09;;;0.96;85.90
33161;BME280;19522;45.656;11.302;2022-12-13T07:23:36;97764.16;;;0.99;85.86
33161;BME280;19522;45.656;11.302;2022-12-13T07:26:03;97768.63;;;1.08;84.83
33161;BME280;19522;45.656;11.302;2022-12-13T07:28:32;97730.72;;;0.75;84.87
33161;BME280;19522;45.656;11.302;2022-12-13T07:31:01;97773.44;;;1.04;84.92
33161;BME280;19522;45.656;11.302;2022-12-13T07:33:27;97744.50;;;0.80;85.34
33161;BME280;19522;45.656;11.302;2022-12-13T07:36:13;97781.19;;;0.98;86.18
33161;BME280;19522;45.656;11.302;2022-12-13T07:38:39;97773.56;;;1.03;85.91
33161;BME280;19522;45.656;11.302;2022-12-13T07:41:05;97773.00;;;1.09;85.41
33161;BME280;19522;45.656;11.302;2022-12-13T07:43:31;97778.47;;;1.07;85.54
33161;BME280;19522;45.656;11.302;2022-12-13T07:45:58;97775.81;;;1.07;85.66
33161;BME280;19522;45.656;11.302;2022-12-13T07:48:25;97767.78;;;1.07;85.72
33161;BME280;19522;45.656;11.302;2022-12-13T07:50:51;97730.16;;;0.81;85.78
33161;BME280;19522;45.656;11.302;2022-12-13T07:53:17;97753.59;;;0.97;85.42
33161;BME280;19522;45.656;11.302;2022-12-13T07:55:42;97767.78;;;1.17;85.26
33161;BME280;19522;45.656;11.302;2022-12-13T07:58:10;97768.59;;;1.18;84.71
33161;BME280;19522;45.656;11.302;2022-12-13T08:00:41;97766.06;;;1.16;84.39
33161;BME280;19522;45.656;11.302;2022-12-13T08:03:07;97767.88;;;1.16;84.34
33161;BME280;19522;45.656;11.302;2022-12-13T08:05:33;97731.09;;;1.00;83.97
33161;BME280;19522;45.656;11.302;2022-12-13T08:07:59;97756.19;;;1.27;83.91
33161;BME280;19522;45.656;11.302;2022-12-13T08:10:26;97769.69;;;1.35;83.48
33161;BME280;19522;45.656;11.302;2022-12-13T08:12:52;97761.66;;;1.35;83.40
33161;BME280;19522;45.656;11.302;2022-12-13T08:15:18;97721.00;;;1.21;83.05
33161;BME280;19522;45.656;11.302;2022-12-13T08:17:43;97760.31;;;1.49;82.46
33161;BME280;19522;45.656;11.302;2022-12-13T08:20:09;97761.81;;;1.61;81.85
33161;BME280;19522;45.656;11.302;2022-12-13T08:22:35;97704.81;;;1.23;81.96
33161;BME280;19522;45.656;11.302;2022-12-13T08:25:02;97703.56;;;1.17;82.08
33161;BME280;19522;45.656;11.302;2022-12-13T08:27:27;97756.91;;;1.57;82.06
33161;BME280;19522;45.656;11.302;2022-12-13T08:29:53;97752.69;;;1.54;82.38
33161;BME280;19522;45.656;11.302;2022-12-13T08:32:19;97743.66;;;1.55;82.48
33161;BME280;19522;45.656;11.302;2022-12-13T08:34:44;97750.25;;;1.61;82.45
33161;BME280;19522;45.656;11.302;2022-12-13T08:37:11;97747.84;;;1.67;82.32
33161;BME280;19522;45.656;11.302;2022-12-13T08:39:40;97745.69;;;1.71;81.89
33161;BME280;19522;45.656;11.302;2022-12-13T08:42:10;97754.13;;;1.76;81.65
33161;BME280;19522;45.656;11.302;2022-12-13T08:44:38;97753.69;;;1.81;81.30
33161;BME280;19522;45.656;11.302;2022-12-13T08:47:03;97733.22;;;1.62;81.13
33161;BME280;19522;45.656;11.302;2022-12-13T08:49:29;97748.34;;;1.81;81.32
33161;BME280;19522;45.656;11.302;2022-12-13T08:51:55;97749.56;;;1.86;80.85
33161;BME280;19522;45.656;11.302;2022-12-13T08:54:20;97713.91;;;1.68;80.15
33161;BME280;19522;45.656;11.302;2022-12-13T08:56:46;97755.81;;;2.05;79.87
33161;BME280;19522;45.656;11.302;2022-12-13T08:59:11;97752.13;;;2.06;79.75
33161;BME280;19522;45.656;11.302;2022-12-13T09:01:37;97753.56;;;2.18;79.30
33161;BME280;19522;45.656;11.302;2022-12-13T09:04:03;97758.25;;;2.53;76.70
33161;BME280;19522;45.656;11.302;2022-12-13T09:06:28;97760.41;;;2.31;77.14
33161;BME280;19522;45.656;11.302;2022-12-13T09:08:53;97738.28;;;2.11;78.16
33161;BME280;19522;45.656;11.302;2022-12-13T09:11:19;97769.50;;;2.20;78.33
33161;BME280;19522;45.656;11.302;2022-12-13T09:13:46;97765.69;;;2.23;78.70
33161;BME280;19522;45.656;11.302;2022-12-13T09:16:14;97765.38;;;2.26;78.11
33161;BME280;19522;45.656;11.302;2022-12-13T09:18:40;97779.00;;;2.14;79.65
33161;BME280;19522;45.656;11.302;2022-12-13T09:21:10;97777.25;;;2.41;73.11
33161;BME280;19522;45.656;11.302;2022-12-13T09:23:36;97780.59;;;2.61;71.80
33161;BME280;19522;45.656;11.302;2022-12-13T09:26:02;97781.16;;;2.47;72.38
33161;BME280;19522;45.656;11.302;2022-12-13T09:28:28;97782.91;;;2.38;73.93
33161;BME280;19522;45.656;11.302;2022-12-13T09:30:55;97746.00;;;2.14;75.41
33161;BME280;19522;45.656;11.302;2022-12-13T09:33:21;97680.00;;;1.77;76.01
33161;BME280;19522;45.656;11.302;2022-12-13T09:35:47;97786.56;;;2.37;76.50
33161;BME280;19522;45.656;11.302;2022-12-13T09:38:13;97784.59;;;2.39;77.00
33161;BME280;19522;45.656;11.302;2022-12-13T09:40:39;97776.19;;;2.34;77.56
33161;BME280;19522;45.656;11.302;2022-12-13T09:43:11;97781.28;;;2.45;77.96
33161;BME280;19522;45.656;11.302;2022-12-13T09:45:43;97775.63;;;2.48;78.13
33161;BME280;19522;45.656;11.302;2022-12-13T09:48:15;97780.94;;;2.58;77.64
33161;BME280;19522;45.656;11.302;2022-12-13T09:50:42;97741.72;;;2.39;77.43
33161;BME280;19522;45.656;11.302;2022-12-13T09:53:07;97749.97;;;2.46;77.52
33161;BME280;19522;45.656;11.302;2022-12-13T09:55:38;97675.97;;;2.09;77.67
33161;BME280;19522;45.656;11.302;2022-12-13T09:58:12;97771.25;;;2.47;77.75
33161;BME280;19522;45.656;11.302;2022-12-13T10:00:39;97762.00;;;2.42;78.58
33161;BME280;19522;45.656;11.302;2022-12-13T10:03:09;97732.22;;;2.09;78.22
33161;BME280;19522;45.656;11.302;2022-12-13T10:05:37;97774.81;;;2.48;77.83
33161;BME280;19522;45.656;11.302;2022-12-13T10:08:11;97770.66;;;2.54;77.25
33161;BME280;19522;45.656;11.302;2022-12-13T10:10:37;97773.09;;;2.65;76.71
33161;BME280;19522;45.656;11.302;2022-12-13T10:15:51;97718.28;;;2.41;76.24
33161;BME280;19522;45.656;11.302;2022-12-13T10:18:26;97776.28;;;2.87;76.33
33161;BME280;19522;45.656;11.302;2022-12-13T10:20:56;97757.38;;;2.88;76.46
33161;BME280;19522;45.656;11.302;2022-12-13T10:23:21;97739.06;;;2.84;75.96
33161;BME280;19522;45.656;11.302;2022-12-13T10:25:53;97762.91;;;3.39;72.29
33161;BME280;19522;45.656;11.302;2022-12-13T10:28:32;97736.41;;;3.45;70.61
33161;BME280;19522;45.656;11.302;2022-12-13T10:30:58;97750.69;;;3.45;69.85
33161;BME280;19522;45.656;11.302;2022-12-13T10:33:30;97749.75;;;3.28;70.84
33161;BME280;19522;45.656;11.302;2022-12-13T10:38:35;97746.50;;;3.16;72.34
33161;BME280;19522;45.656;11.302;2022-12-13T10:41:02;97715.94;;;2.83;73.92
33161;BME280;19522;45.656;11.302;2022-12-13T10:43:28;97740.66;;;2.94;74.57
33161;BME280;19522;45.656;11.302;2022-12-13T10:46:01;97747.16;;;2.92;75.21
33161;BME280;19522;45.656;11.302;2022-12-13T10:48:37;97740.84;;;2.75;73.76
33161;BME280;19522;45.656;11.302;2022-12-13T10:53:46;97732.09;;;2.73;74.01
33161;BME280;19522;45.656;11.302;2022-12-13T10:56:12;97736.63;;;2.72;73.26
33161;BME280;19522;45.656;11.302;2022-12-13T10:58:41;97730.34;;;2.63;71.30
33161;BME280;19522;45.656;11.302;2022-12-13T11:04:05;97716.44;;;2.86;68.81
33161;BME280;19522;45.656;11.302;2022-12-13T11:06:45;97714.34;;;2.98;69.42
33161;BME280;19522;45.656;11.302;2022-12-13T11:11:54;97590.69;;;2.48;70.30
33161;BME280;19522;45.656;11.302;2022-12-13T11:14:24;97690.31;;;3.23;70.89
33161;BME280;19522;45.656;11.302;2022-12-13T11:16:57;97654.06;;;3.10;71.21
33161;BME280;19522;45.656;11.302;2022-12-13T11:21:58;97667.09;;;2.79;67.90
33161;BME280;19522;45.656;11.302;2022-12-13T11:24:31;97699.09;;;2.72;64.21
33161;BME280;19522;45.656;11.302;2022-12-13T11:27:23;97694.34;;;2.92;64.19
33161;BME280;19522;45.656;11.302;2022-12-13T11:35:59;97689.03;;;2.48;61.94
33161;BME280;19522;45.656;11.302;2022-12-13T11:38:52;97687.00;;;2.68;60.53
33161;BME280;19522;45.656;11.302;2022-12-13T11:41:24;97654.63;;;2.17;61.31
33161;BME280;19522;45.656;11.302;2022-12-13T11:43:57;97661.00;;;2.42;62.01
33161;BME280;19522;45.656;11.302;2022-12-13T11:46:47;97691.16;;;2.89;61.12
33161;BME280;19522;45.656;11.302;2022-12-13T11:49:16;97676.97;;;2.70;61.35
33161;BME280;19522;45.656;11.302;2022-12-13T11:52:26;97641.63;;;2.04;61.40
33161;BME280;19522;45.656;11.302;2022-12-13T11:57:43;97678.13;;;2.68;63.07
33161;BME280;19522;45.656;11.302;2022-12-13T12:00:39;97672.47;;;3.05;63.40
33161;BME280;19522;45.656;11.302;2022-12-13T12:03:18;97594.00;;;2.16;64.02
33161;BME280;19522;45.656;11.302;2022-12-13T12:06:08;97677.31;;;2.75;62.64
33161;BME280;19522;45.656;11.302;2022-12-13T12:08:37;97682.38;;;2.78;63.91
33161;BME280;19522;45.656;11.302;2022-12-13T12:11:34;97679.31;;;3.00;63.63
33161;BME280;19522;45.656;11.302;2022-12-13T12:16:45;97668.22;;;3.29;60.54
33161;BME280;19522;45.656;11.302;2022-12-13T12:19:28;97670.75;;;3.31;61.26
33161;BME280;19522;45.656;11.302;2022-12-13T12:25:12;97662.38;;;3.34;59.43
33161;BME280;19522;45.656;11.302;2022-12-13T12:33:08;97656.84;;;3.35;59.98
33161;BME280;19522;45.656;11.302;2022-12-13T12:35:48;97660.41;;;3.44;59.18
33161;BME280;19522;45.656;11.302;2022-12-13T12:53:06;97649.75;;;3.26;58.54
33161;BME280;19522;45.656;11.302;2022-12-13T13:03:48;97632.94;;;3.16;58.45
33161;BME280;19522;45.656;11.302;2022-12-13T13:06:29;97623.13;;;2.98;57.63
33161;BME280;19522;45.656;11.302;2022-12-13T13:09:07;97636.59;;;3.06;57.33
33161;BME280;19522;45.656;11.302;2022-12-13T13:11:38;97617.94;;;2.96;59.11
33161;BME280;19522;45.656;11.302;2022-12-13T13:14:29;97637.25;;;3.43;57.92
33161;BME280;19522;45.656;11.302;2022-12-13T13:16:55;97608.78;;;3.16;57.52
33161;BME280;19522;45.656;11.302;2022-12-13T13:21:56;97599.19;;;3.05;59.45
33161;BME280;19522;45.656;11.302;2022-12-13T13:24:27;97628.47;;;3.24;59.72
33161;BME280;19522;45.656;11.302;2022-12-13T13:26:56;97645.09;;;3.36;60.00
33161;BME280;19522;45.656;11.302;2022-12-13T13:34:40;97651.34;;;3.45;58.98
33161;BME280;19522;45.656;11.302;2022-12-13T13:43:15;97661.25;;;3.53;59.37
33161;BME280;19522;45.656;11.302;2022-12-13T14:11:15;97656.97;;;3.68;57.46
33161;BME280;19522;45.656;11.302;2022-12-13T14:22:23;97649.50;;;3.54;57.50
33161;BME280;19522;45.656;11.302;2022-12-13T14:28:20;97642.84;;;3.66;58.94
33161;BME280;19522;45.656;11.302;2022-12-13T14:30:50;97641.63;;;3.52;59.69
33161;BME280;19522;45.656;11.302;2022-12-13T14:33:20;97649.78;;;3.34;62.14
33161;BME280;19522;45.656;11.302;2022-12-13T14:38:27;97640.06;;;3.41;60.97
33161;BME280;19522;45.656;11.302;2022-12-13T14:41:00;97636.38;;;3.34;60.35
33161;BME280;19522;45.656;11.302;2022-12-13T14:43:30;97632.00;;;3.33;61.07
33161;BME280;19522;45.656;11.302;2022-12-13T14:46:04;97637.69;;;3.22;61.94
33161;BME280;19522;45.656;11.302;2022-12-13T14:48:36;97636.66;;;3.23;61.52
33161;BME280;19522;45.656;11.302;2022-12-13T14:51:34;97627.81;;;3.39;59.57
33161;BME280;19522;45.656;11.302;2022-12-13T14:54:04;97613.47;;;3.14;60.52
33161;BME280;19522;45.656;11.302;2022-12-13T14:56:31;97642.69;;;3.25;62.32
33161;BME280;19522;45.656;11.302;2022-12-13T14:59:02;97637.81;;;3.20;62.58
33161;BME280;19522;45.656;11.302;2022-12-13T15:01:38;97606.34;;;2.96;63.60
33161;BME280;19522;45.656;11.302;2022-12-13T15:09:39;97607.75;;;3.08;64.85
33161;BME280;19522;45.656;11.302;2022-12-13T15:12:12;97641.69;;;3.26;65.70
33161;BME280;19522;45.656;11.302;2022-12-13T15:14:49;97649.94;;;3.24;66.56
33161;BME280;19522;45.656;11.302;2022-12-13T15:19:52;97652.06;;;3.13;66.88
33161;BME280;19522;45.656;11.302;2022-12-13T15:22:18;97627.69;;;2.98;66.87
33161;BME280;19522;45.656;11.302;2022-12-13T15:24:44;97629.53;;;3.05;66.76
33161;BME280;19522;45.656;11.302;2022-12-13T15:27:18;97646.28;;;3.34;67.24
33161;BME280;19522;45.656;11.302;2022-12-13T15:29:46;97651.25;;;3.28;67.42
33161;BME280;19522;45.656;11.302;2022-12-13T15:32:14;97650.38;;;3.11;68.06
33161;BME280;19522;45.656;11.302;2022-12-13T15:34:41;97631.25;;;2.80;68.21
33161;BME280;19522;45.656;11.302;2022-12-13T15:39:44;97646.00;;;3.10;67.53